sensor_id;sensor_type;location;lat;lon;timestamp;P1;durP1;ratioP1;P2;durP2;ratioP2
32946;SDS011;54465;51.230;22.504;2023-04-06T00:04:32;4.75;;;3.00;;
32946;SDS011;54465;51.230;22.504;2023-04-06T00:09:33;7.78;;;2.90;;
32946;SDS011;54465;51.230;22.504;2023-04-06T00:14:33;4.18;;;2.25;;
32946;SDS011;54465;51.230;22.504;2023-04-06T00:19:34;5.43;;;2.80;;
32946;SDS011;54465;51.230;22.504;2023-04-06T00:24:35;3.28;;;1.92;;
32946;SDS011;54465;51.230;22.504;2023-04-06T00:29:35;6.07;;;2.28;;
32946;SDS011;54465;51.230;22.504;2023-04-06T00:34:36;3.75;;;1.92;;
32946;SDS011;54465;51.230;22.504;2023-04-06T00:39:37;4.60;;;2.28;;
32946;SDS011;54465;51.230;22.504;2023-04-06T00:44:37;4.68;;;2.10;;
32946;SDS011;54465;51.230;22.504;2023-04-06T00:49:38;3.75;;;1.88;;
32946;SDS011;54465;51.230;22.504;2023-04-06T00:54:38;3.22;;;1.65;;
32946;SDS011;54465;51.230;22.504;2023-04-06T00:59:39;3.10;;;1.90;;
32946;SDS011;54465;51.230;22.504;2023-04-06T01:04:43;5.03;;;2.35;;
32946;SDS011;54465;51.230;22.504;2023-04-06T01:09:52;4.25;;;2.67;;
32946;SDS011;54465;51.230;22.504;2023-04-06T01:14:57;4.57;;;2.08;;
32946;SDS011;54465;51.230;22.504;2023-04-06T01:19:59;4.13;;;1.88;;
32946;SDS011;54465;51.230;22.504;2023-04-06T01:25:04;2.60;;;1.50;;
32946;SDS011;54465;51.230;22.504;2023-04-06T01:30:15;3.13;;;1.52;;
32946;SDS011;54465;51.230;22.504;2023-04-06T01:35:30;3.60;;;1.35;;
32946;SDS011;54465;51.230;22.504;2023-04-06T01:40:42;3.70;;;1.80;;
32946;SDS011;54465;51.230;22.504;2023-04-06T01:45:44;3.13;;;1.90;;
32946;SDS011;54465;51.230;22.504;2023-04-06T01:50:50;3.35;;;1.27;;
32946;SDS011;54465;51.230;22.504;2023-04-06T01:55:56;4.65;;;2.63;;
32946;SDS011;54465;51.230;22.504;2023-04-06T02:01:00;2.15;;;1.25;;
32946;SDS011;54465;51.230;22.504;2023-04-06T02:06:05;4.35;;;2.03;;
32946;SDS011;54465;51.230;22.504;2023-04-06T02:11:11;4.45;;;1.73;;
32946;SDS011;54465;51.230;22.504;2023-04-06T02:16:17;3.33;;;1.65;;
32946;SDS011;54465;51.230;22.504;2023-04-06T02:21:19;4.93;;;2.00;;
32946;SDS011;54465;51.230;22.504;2023-04-06T02:26:20;4.72;;;1.98;;
32946;SDS011;54465;51.230;22.504;2023-04-06T02:31:21;5.57;;;1.83;;
32946;SDS011;54465;51.230;22.504;2023-04-06T02:36:22;3.00;;;1.35;;
32946;SDS011;54465;51.230;22.504;2023-04-06T02:41:22;2.63;;;1.23;;
32946;SDS011;54465;51.230;22.504;2023-04-06T02:46:24;2.83;;;1.27;;
32946;SDS011;54465;51.230;22.504;2023-04-06T02:51:24;2.47;;;1.30;;
32946;SDS011;54465;51.230;22.504;2023-04-06T02:56:29;2.63;;;1.40;;
32946;SDS011;54465;51.230;22.504;2023-04-06T03:01:30;2.45;;;1.52;;
32946;SDS011;54465;51.230;22.504;2023-04-06T03:06:35;2.83;;;1.67;;
32946;SDS011;54465;51.230;22.504;2023-04-06T03:11:45;5.15;;;2.00;;
32946;SDS011;54465;51.230;22.504;2023-04-06T03:16:46;3.85;;;1.80;;
32946;SDS011;54465;51.230;22.504;2023-04-06T03:21:51;5.43;;;1.60;;
32946;SDS011;54465;51.230;22.504;2023-04-06T03:26:53;2.05;;;1.27;;
32946;SDS011;54465;51.230;22.504;2023-04-06T03:31:55;4.72;;;1.77;;
32946;SDS011;54465;51.230;22.504;2023-04-06T03:37:12;2.30;;;1.77;;
32946;SDS011;54465;51.230;22.504;2023-04-06T03:42:20;5.18;;;1.60;;
32946;SDS011;54465;51.230;22.504;2023-04-06T03:47:27;4.38;;;2.33;;
32946;SDS011;54465;51.230;22.504;2023-04-06T03:52:32;3.10;;;1.83;;
32946;SDS011;54465;51.230;22.504;2023-04-06T03:57:33;3.95;;;2.17;;
32946;SDS011;54465;51.230;22.504;2023-04-06T04:02:33;2.13;;;1.30;;
32946;SDS011;54465;51.230;22.504;2023-04-06T04:07:34;2.63;;;1.52;;
32946;SDS011;54465;51.230;22.504;2023-04-06T04:12:34;2.65;;;1.40;;
32946;SDS011;54465;51.230;22.504;2023-04-06T04:17:35;6.97;;;1.58;;
32946;SDS011;54465;51.230;22.504;2023-04-06T04:22:36;3.65;;;1.63;;
32946;SDS011;54465;51.230;22.504;2023-04-06T04:27:36;3.00;;;1.42;;
32946;SDS011;54465;51.230;22.504;2023-04-06T04:32:37;2.17;;;1.10;;
32946;SDS011;54465;51.230;22.504;2023-04-06T04:37:40;1.80;;;1.50;;
32946;SDS011;54465;51.230;22.504;2023-04-06T04:42:41;2.20;;;1.40;;
32946;SDS011;54465;51.230;22.504;2023-04-06T04:47:47;2.33;;;1.63;;
32946;SDS011;54465;51.230;22.504;2023-04-06T04:52:50;3.42;;;2.00;;
32946;SDS011;54465;51.230;22.504;2023-04-06T04:57:55;3.50;;;1.92;;
32946;SDS011;54465;51.230;22.504;2023-04-06T05:03:03;2.13;;;1.60;;
32946;SDS011;54465;51.230;22.504;2023-04-06T05:08:08;3.53;;;1.80;;
32946;SDS011;54465;51.230;22.504;2023-04-06T05:13:16;5.25;;;1.67;;
32946;SDS011;54465;51.230;22.504;2023-04-06T05:18:19;2.08;;;1.40;;
32946;SDS011;54465;51.230;22.504;2023-04-06T05:23:20;2.40;;;1.80;;
32946;SDS011;54465;51.230;22.504;2023-04-06T05:28:21;4.70;;;1.95;;
32946;SDS011;54465;51.230;22.504;2023-04-06T05:33:22;2.05;;;1.52;;
32946;SDS011;54465;51.230;22.504;2023-04-06T05:38:42;4.15;;;2.47;;
32946;SDS011;54465;51.230;22.504;2023-04-06T05:43:55;3.25;;;1.67;;
32946;SDS011;54465;51.230;22.504;2023-04-06T05:48:57;3.80;;;2.22;;
32946;SDS011;54465;51.230;22.504;2023-04-06T05:54:02;5.82;;;2.17;;
32946;SDS011;54465;51.230;22.504;2023-04-06T05:59:03;4.35;;;2.38;;
32946;SDS011;54465;51.230;22.504;2023-04-06T06:04:05;3.55;;;2.05;;
32946;SDS011;54465;51.230;22.504;2023-04-06T06:09:09;5.68;;;2.67;;
32946;SDS011;54465;51.230;22.504;2023-04-06T06:14:15;7.43;;;3.00;;
32946;SDS011;54465;51.230;22.504;2023-04-06T06:19:17;2.55;;;1.75;;
32946;SDS011;54465;51.230;22.504;2023-04-06T06:24:19;3.90;;;1.83;;
32946;SDS011;54465;51.230;22.504;2023-04-06T06:29:19;2.25;;;1.70;;
32946;SDS011;54465;51.230;22.504;2023-04-06T06:34:20;7.10;;;2.33;;
32946;SDS011;54465;51.230;22.504;2023-04-06T06:39:20;5.85;;;2.28;;
32946;SDS011;54465;51.230;22.504;2023-04-06T06:44:23;2.92;;;1.83;;
32946;SDS011;54465;51.230;22.504;2023-04-06T06:49:24;4.75;;;2.15;;
32946;SDS011;54465;51.230;22.504;2023-04-06T06:54:25;2.67;;;1.98;;
32946;SDS011;54465;51.230;22.504;2023-04-06T06:59:26;3.78;;;2.17;;
32946;SDS011;54465;51.230;22.504;2023-04-06T07:04:27;7.93;;;2.60;;
32946;SDS011;54465;51.230;22.504;2023-04-06T07:09:28;7.68;;;2.08;;
32946;SDS011;54465;51.230;22.504;2023-04-06T07:14:28;2.25;;;1.42;;
32946;SDS011;54465;51.230;22.504;2023-04-06T07:19:29;5.22;;;2.63;;
32946;SDS011;54465;51.230;22.504;2023-04-06T07:24:30;5.75;;;2.33;;
32946;SDS011;54465;51.230;22.504;2023-04-06T07:29:31;3.08;;;2.00;;
32946;SDS011;54465;51.230;22.504;2023-04-06T07:34:32;5.70;;;3.00;;
32946;SDS011;54465;51.230;22.504;2023-04-06T07:39:33;5.28;;;2.38;;
32946;SDS011;54465;51.230;22.504;2023-04-06T07:44:34;6.60;;;2.38;;
32946;SDS011;54465;51.230;22.504;2023-04-06T07:49:35;4.20;;;2.38;;
32946;SDS011;54465;51.230;22.504;2023-04-06T07:54:36;5.80;;;2.65;;
32946;SDS011;54465;51.230;22.504;2023-04-06T07:59:37;5.97;;;2.53;;
32946;SDS011;54465;51.230;22.504;2023-04-06T08:04:37;7.30;;;2.25;;
32946;SDS011;54465;51.230;22.504;2023-04-06T08:09:38;3.33;;;1.85;;
32946;SDS011;54465;51.230;22.504;2023-04-06T08:14:38;4.13;;;2.38;;
32946;SDS011;54465;51.230;22.504;2023-04-06T08:19:38;4.00;;;2.78;;
32946;SDS011;54465;51.230;22.504;2023-04-06T08:24:39;3.33;;;1.92;;
32946;SDS011;54465;51.230;22.504;2023-04-06T08:29:40;4.53;;;2.38;;
32946;SDS011;54465;51.230;22.504;2023-04-06T08:34:41;4.28;;;2.92;;
32946;SDS011;54465;51.230;22.504;2023-04-06T08:39:41;4.82;;;2.38;;
32946;SDS011;54465;51.230;22.504;2023-04-06T08:44:42;7.38;;;3.40;;
32946;SDS011;54465;51.230;22.504;2023-04-06T08:49:42;3.53;;;2.03;;
32946;SDS011;54465;51.230;22.504;2023-04-06T08:54:44;5.00;;;2.50;;
32946;SDS011;54465;51.230;22.504;2023-04-06T08:59:45;6.78;;;2.20;;
32946;SDS011;54465;51.230;22.504;2023-04-06T09:04:46;4.38;;;2.88;;
32946;SDS011;54465;51.230;22.504;2023-04-06T09:09:48;5.85;;;2.92;;
32946;SDS011;54465;51.230;22.504;2023-04-06T09:14:48;3.75;;;2.10;;
32946;SDS011;54465;51.230;22.504;2023-04-06T09:19:49;3.35;;;2.35;;
32946;SDS011;54465;51.230;22.504;2023-04-06T09:24:51;2.70;;;2.35;;
32946;SDS011;54465;51.230;22.504;2023-04-06T09:30:01;3.95;;;2.47;;
32946;SDS011;54465;51.230;22.504;2023-04-06T09:35:09;5.50;;;2.90;;
32946;SDS011;54465;51.230;22.504;2023-04-06T09:40:10;4.43;;;2.45;;
32946;SDS011;54465;51.230;22.504;2023-04-06T09:45:11;7.05;;;2.97;;
32946;SDS011;54465;51.230;22.504;2023-04-06T09:50:12;5.25;;;2.53;;
32946;SDS011;54465;51.230;22.504;2023-04-06T09:55:14;3.97;;;2.97;;
32946;SDS011;54465;51.230;22.504;2023-04-06T10:00:21;8.82;;;3.72;;
32946;SDS011;54465;51.230;22.504;2023-04-06T10:05:31;5.60;;;2.75;;
32946;SDS011;54465;51.230;22.504;2023-04-06T10:10:36;3.30;;;3.00;;
32946;SDS011;54465;51.230;22.504;2023-04-06T10:15:37;5.18;;;2.75;;
32946;SDS011;54465;51.230;22.504;2023-04-06T10:20:39;6.05;;;2.53;;
32946;SDS011;54465;51.230;22.504;2023-04-06T10:25:59;3.65;;;2.10;;
32946;SDS011;54465;51.230;22.504;2023-04-06T10:31:02;4.88;;;2.50;;
32946;SDS011;54465;51.230;22.504;2023-04-06T10:36:14;4.88;;;3.35;;
32946;SDS011;54465;51.230;22.504;2023-04-06T10:41:21;6.05;;;2.85;;
32946;SDS011;54465;51.230;22.504;2023-04-06T10:46:25;3.97;;;2.55;;
32946;SDS011;54465;51.230;22.504;2023-04-06T10:51:27;2.97;;;1.75;;
32946;SDS011;54465;51.230;22.504;2023-04-06T10:56:28;2.85;;;1.80;;
32946;SDS011;54465;51.230;22.504;2023-04-06T11:01:30;4.03;;;3.03;;
32946;SDS011;54465;51.230;22.504;2023-04-06T11:06:31;3.25;;;2.05;;
32946;SDS011;54465;51.230;22.504;2023-04-06T11:11:32;5.10;;;3.08;;
32946;SDS011;54465;51.230;22.504;2023-04-06T11:16:33;3.58;;;2.67;;
32946;SDS011;54465;51.230;22.504;2023-04-06T11:21:37;2.85;;;2.33;;
32946;SDS011;54465;51.230;22.504;2023-04-06T11:26:44;3.15;;;1.98;;
32946;SDS011;54465;51.230;22.504;2023-04-06T11:32:06;5.38;;;3.28;;
32946;SDS011;54465;51.230;22.504;2023-04-06T11:37:08;3.88;;;2.38;;
32946;SDS011;54465;51.230;22.504;2023-04-06T11:42:09;2.38;;;1.85;;
32946;SDS011;54465;51.230;22.504;2023-04-06T11:47:10;2.95;;;1.92;;
32946;SDS011;54465;51.230;22.504;2023-04-06T11:52:21;5.05;;;3.03;;
32946;SDS011;54465;51.230;22.504;2023-04-06T11:57:23;3.45;;;2.22;;
32946;SDS011;54465;51.230;22.504;2023-04-06T12:02:28;5.15;;;2.33;;
32946;SDS011;54465;51.230;22.504;2023-04-06T12:07:29;6.63;;;3.05;;
32946;SDS011;54465;51.230;22.504;2023-04-06T12:12:30;4.85;;;2.78;;
32946;SDS011;54465;51.230;22.504;2023-04-06T12:17:30;4.53;;;2.47;;
32946;SDS011;54465;51.230;22.504;2023-04-06T12:22:31;3.92;;;2.45;;
32946;SDS011;54465;51.230;22.504;2023-04-06T12:27:31;4.43;;;2.97;;
32946;SDS011;54465;51.230;22.504;2023-04-06T12:32:32;4.65;;;2.38;;
32946;SDS011;54465;51.230;22.504;2023-04-06T12:37:33;6.13;;;2.75;;
32946;SDS011;54465;51.230;22.504;2023-04-06T12:42:33;4.53;;;2.97;;
32946;SDS011;54465;51.230;22.504;2023-04-06T12:47:33;4.05;;;2.58;;
32946;SDS011;54465;51.230;22.504;2023-04-06T12:52:36;4.65;;;2.63;;
32946;SDS011;54465;51.230;22.504;2023-04-06T12:57:36;3.05;;;2.15;;
32946;SDS011;54465;51.230;22.504;2023-04-06T13:02:37;5.63;;;2.40;;
32946;SDS011;54465;51.230;22.504;2023-04-06T13:07:37;4.85;;;2.00;;
32946;SDS011;54465;51.230;22.504;2023-04-06T13:12:38;4.88;;;2.60;;
32946;SDS011;54465;51.230;22.504;2023-04-06T13:17:38;5.47;;;2.45;;
32946;SDS011;54465;51.230;22.504;2023-04-06T13:22:39;4.15;;;2.35;;
32946;SDS011;54465;51.230;22.504;2023-04-06T13:27:39;5.13;;;3.00;;
32946;SDS011;54465;51.230;22.504;2023-04-06T13:32:40;3.78;;;2.13;;
32946;SDS011;54465;51.230;22.504;2023-04-06T13:37:41;5.18;;;2.58;;
32946;SDS011;54465;51.230;22.504;2023-04-06T13:42:41;6.13;;;2.80;;
32946;SDS011;54465;51.230;22.504;2023-04-06T13:47:44;8.85;;;3.00;;
32946;SDS011;54465;51.230;22.504;2023-04-06T13:52:44;6.60;;;2.92;;
32946;SDS011;54465;51.230;22.504;2023-04-06T13:57:45;5.55;;;3.05;;
32946;SDS011;54465;51.230;22.504;2023-04-06T14:02:45;5.28;;;2.72;;
32946;SDS011;54465;51.230;22.504;2023-04-06T14:07:46;3.08;;;2.05;;
32946;SDS011;54465;51.230;22.504;2023-04-06T14:12:46;3.40;;;2.55;;
32946;SDS011;54465;51.230;22.504;2023-04-06T14:17:46;5.35;;;3.05;;
32946;SDS011;54465;51.230;22.504;2023-04-06T14:22:47;6.18;;;3.17;;
32946;SDS011;54465;51.230;22.504;2023-04-06T14:27:49;3.47;;;2.63;;
32946;SDS011;54465;51.230;22.504;2023-04-06T14:32:51;8.18;;;4.00;;
32946;SDS011;54465;51.230;22.504;2023-04-06T14:37:51;7.72;;;4.18;;
32946;SDS011;54465;51.230;22.504;2023-04-06T14:42:52;6.68;;;3.55;;
32946;SDS011;54465;51.230;22.504;2023-04-06T14:47:52;6.60;;;3.58;;
32946;SDS011;54465;51.230;22.504;2023-04-06T14:52:53;7.95;;;3.72;;
32946;SDS011;54465;51.230;22.504;2023-04-06T14:57:53;8.23;;;3.95;;
32946;SDS011;54465;51.230;22.504;2023-04-06T15:02:54;15.77;;;4.70;;
32946;SDS011;54465;51.230;22.504;2023-04-06T15:07:54;7.93;;;3.67;;
32946;SDS011;54465;51.230;22.504;2023-04-06T15:12:55;7.13;;;3.67;;
32946;SDS011;54465;51.230;22.504;2023-04-06T15:17:55;6.15;;;3.47;;
32946;SDS011;54465;51.230;22.504;2023-04-06T15:22:56;7.82;;;4.32;;
32946;SDS011;54465;51.230;22.504;2023-04-06T15:27:56;9.60;;;3.85;;
32946;SDS011;54465;51.230;22.504;2023-04-06T15:32:58;7.40;;;4.20;;
32946;SDS011;54465;51.230;22.504;2023-04-06T15:38:03;6.93;;;3.60;;
32946;SDS011;54465;51.230;22.504;2023-04-06T15:43:03;7.00;;;4.18;;
32946;SDS011;54465;51.230;22.504;2023-04-06T15:48:04;7.68;;;4.13;;
32946;SDS011;54465;51.230;22.504;2023-04-06T15:53:05;8.55;;;4.68;;
32946;SDS011;54465;51.230;22.504;2023-04-06T15:58:06;6.85;;;4.35;;
32946;SDS011;54465;51.230;22.504;2023-04-06T16:03:07;6.22;;;4.22;;
32946;SDS011;54465;51.230;22.504;2023-04-06T16:08:07;6.40;;;4.00;;
32946;SDS011;54465;51.230;22.504;2023-04-06T16:13:08;5.78;;;3.78;;
32946;SDS011;54465;51.230;22.504;2023-04-06T16:18:08;9.02;;;4.22;;
32946;SDS011;54465;51.230;22.504;2023-04-06T16:23:09;7.18;;;4.18;;
32946;SDS011;54465;51.230;22.504;2023-04-06T16:28:09;5.38;;;3.30;;
32946;SDS011;54465;51.230;22.504;2023-04-06T16:33:10;6.53;;;3.60;;
32946;SDS011;54465;51.230;22.504;2023-04-06T16:38:11;8.15;;;3.45;;
32946;SDS011;54465;51.230;22.504;2023-04-06T16:43:12;6.20;;;3.50;;
32946;SDS011;54465;51.230;22.504;2023-04-06T16:48:13;6.47;;;4.00;;
32946;SDS011;54465;51.230;22.504;2023-04-06T16:53:13;9.57;;;4.75;;
32946;SDS011;54465;51.230;22.504;2023-04-06T16:58:14;7.82;;;4.43;;
32946;SDS011;54465;51.230;22.504;2023-04-06T17:03:14;12.85;;;4.95;;
32946;SDS011;54465;51.230;22.504;2023-04-06T17:08:15;8.95;;;5.13;;
32946;SDS011;54465;51.230;22.504;2023-04-06T17:13:15;7.55;;;4.15;;
32946;SDS011;54465;51.230;22.504;2023-04-06T17:18:16;9.13;;;4.90;;
32946;SDS011;54465;51.230;22.504;2023-04-06T17:23:16;6.18;;;4.28;;
32946;SDS011;54465;51.230;22.504;2023-04-06T17:28:17;8.65;;;5.10;;
32946;SDS011;54465;51.230;22.504;2023-04-06T17:33:17;8.30;;;4.85;;
32946;SDS011;54465;51.230;22.504;2023-04-06T17:38:18;8.65;;;5.70;;
32946;SDS011;54465;51.230;22.504;2023-04-06T17:43:18;9.68;;;5.68;;
32946;SDS011;54465;51.230;22.504;2023-04-06T17:48:19;8.88;;;5.57;;
32946;SDS011;54465;51.230;22.504;2023-04-06T17:53:20;10.52;;;5.85;;
32946;SDS011;54465;51.230;22.504;2023-04-06T17:58:21;9.77;;;4.88;;
32946;SDS011;54465;51.230;22.504;2023-04-06T18:03:21;9.20;;;5.57;;
32946;SDS011;54465;51.230;22.504;2023-04-06T18:08:22;11.45;;;6.35;;
32946;SDS011;54465;51.230;22.504;2023-04-06T18:13:23;10.20;;;5.53;;
32946;SDS011;54465;51.230;22.504;2023-04-06T18:18:24;10.55;;;5.07;;
32946;SDS011;54465;51.230;22.504;2023-04-06T18:23:25;9.90;;;6.15;;
32946;SDS011;54465;51.230;22.504;2023-04-06T18:28:26;17.17;;;6.80;;
32946;SDS011;54465;51.230;22.504;2023-04-06T18:33:26;9.88;;;5.97;;
32946;SDS011;54465;51.230;22.504;2023-04-06T18:38:27;9.38;;;5.82;;
32946;SDS011;54465;51.230;22.504;2023-04-06T18:43:27;12.90;;;6.72;;
32946;SDS011;54465;51.230;22.504;2023-04-06T18:48:28;10.80;;;6.38;;
32946;SDS011;54465;51.230;22.504;2023-04-06T18:53:29;12.65;;;6.15;;
32946;SDS011;54465;51.230;22.504;2023-04-06T18:58:29;9.65;;;6.10;;
32946;SDS011;54465;51.230;22.504;2023-04-06T19:03:30;13.50;;;7.15;;
32946;SDS011;54465;51.230;22.504;2023-04-06T19:08:31;10.43;;;6.75;;
32946;SDS011;54465;51.230;22.504;2023-04-06T19:13:31;13.43;;;7.07;;
32946;SDS011;54465;51.230;22.504;2023-04-06T19:18:32;14.43;;;6.55;;
32946;SDS011;54465;51.230;22.504;2023-04-06T19:23:32;12.20;;;6.90;;
32946;SDS011;54465;51.230;22.504;2023-04-06T19:28:33;11.68;;;6.65;;
32946;SDS011;54465;51.230;22.504;2023-04-06T19:33:33;9.93;;;5.95;;
32946;SDS011;54465;51.230;22.504;2023-04-06T19:38:35;15.68;;;7.03;;
32946;SDS011;54465;51.230;22.504;2023-04-06T19:43:36;10.82;;;6.45;;
32946;SDS011;54465;51.230;22.504;2023-04-06T19:48:37;13.90;;;6.85;;
32946;SDS011;54465;51.230;22.504;2023-04-06T19:53:37;11.02;;;5.95;;
32946;SDS011;54465;51.230;22.504;2023-04-06T19:58:38;11.95;;;6.30;;
32946;SDS011;54465;51.230;22.504;2023-04-06T20:03:38;11.25;;;6.13;;
32946;SDS011;54465;51.230;22.504;2023-04-06T20:08:39;11.27;;;5.57;;
32946;SDS011;54465;51.230;22.504;2023-04-06T20:13:39;10.40;;;5.25;;
32946;SDS011;54465;51.230;22.504;2023-04-06T20:18:40;5.93;;;4.95;;
32946;SDS011;54465;51.230;22.504;2023-04-06T20:23:40;7.55;;;4.68;;
32946;SDS011;54465;51.230;22.504;2023-04-06T20:28:41;12.77;;;5.55;;
32946;SDS011;54465;51.230;22.504;2023-04-06T20:33:41;9.93;;;5.43;;
32946;SDS011;54465;51.230;22.504;2023-04-06T20:38:42;8.10;;;4.47;;
32946;SDS011;54465;51.230;22.504;2023-04-06T20:43:42;6.20;;;4.45;;
32946;SDS011;54465;51.230;22.504;2023-04-06T20:48:43;8.57;;;5.28;;
32946;SDS011;54465;51.230;22.504;2023-04-06T20:53:43;10.05;;;4.68;;
32946;SDS011;54465;51.230;22.504;2023-04-06T20:58:45;8.88;;;4.57;;
32946;SDS011;54465;51.230;22.504;2023-04-06T21:03:45;9.57;;;4.88;;
32946;SDS011;54465;51.230;22.504;2023-04-06T21:08:46;6.68;;;4.32;;
32946;SDS011;54465;51.230;22.504;2023-04-06T21:13:46;9.02;;;4.65;;
32946;SDS011;54465;51.230;22.504;2023-04-06T21:18:46;10.73;;;4.85;;
32946;SDS011;54465;51.230;22.504;2023-04-06T21:23:48;9.48;;;4.40;;
32946;SDS011;54465;51.230;22.504;2023-04-06T21:28:51;9.32;;;4.80;;
32946;SDS011;54465;51.230;22.504;2023-04-06T21:33:51;9.00;;;5.22;;
32946;SDS011;54465;51.230;22.504;2023-04-06T21:38:52;8.93;;;4.85;;
32946;SDS011;54465;51.230;22.504;2023-04-06T21:43:52;8.35;;;5.25;;
32946;SDS011;54465;51.230;22.504;2023-04-06T21:48:52;8.05;;;5.45;;
32946;SDS011;54465;51.230;22.504;2023-04-06T21:53:53;8.23;;;4.82;;
32946;SDS011;54465;51.230;22.504;2023-04-06T21:58:55;9.48;;;4.47;;
32946;SDS011;54465;51.230;22.504;2023-04-06T22:03:55;10.60;;;5.25;;
32946;SDS011;54465;51.230;22.504;2023-04-06T22:08:56;8.23;;;4.55;;
32946;SDS011;54465;51.230;22.504;2023-04-06T22:13:57;9.20;;;5.10;;
32946;SDS011;54465;51.230;22.504;2023-04-06T22:18:57;8.02;;;4.78;;
32946;SDS011;54465;51.230;22.504;2023-04-06T22:23:58;13.27;;;5.68;;
32946;SDS011;54465;51.230;22.504;2023-04-06T22:28:58;11.13;;;5.82;;
32946;SDS011;54465;51.230;22.504;2023-04-06T22:33:59;12.70;;;6.47;;
32946;SDS011;54465;51.230;22.504;2023-04-06T22:38:59;12.90;;;5.88;;
32946;SDS011;54465;51.230;22.504;2023-04-06T22:44:00;10.63;;;6.00;;
32946;SDS011;54465;51.230;22.504;2023-04-06T22:49:01;11.27;;;5.65;;
32946;SDS011;54465;51.230;22.504;2023-04-06T22:54:03;11.43;;;6.43;;
32946;SDS011;54465;51.230;22.504;2023-04-06T22:59:03;12.05;;;6.63;;
32946;SDS011;54465;51.230;22.504;2023-04-06T23:04:04;13.38;;;7.20;;
32946;SDS011;54465;51.230;22.504;2023-04-06T23:09:05;12.52;;;6.30;;
32946;SDS011;54465;51.230;22.504;2023-04-06T23:14:05;15.35;;;7.32;;
32946;SDS011;54465;51.230;22.504;2023-04-06T23:19:06;15.35;;;6.75;;
32946;SDS011;54465;51.230;22.504;2023-04-06T23:24:06;19.80;;;6.88;;
32946;SDS011;54465;51.230;22.504;2023-04-06T23:29:06;16.10;;;6.88;;
32946;SDS011;54465;51.230;22.504;2023-04-06T23:34:07;29.52;;;6.55;;
32946;SDS011;54465;51.230;22.504;2023-04-06T23:39:07;15.75;;;6.95;;
32946;SDS011;54465;51.230;22.504;2023-04-06T23:44:08;34.38;;;7.70;;
32946;SDS011;54465;51.230;22.504;2023-04-06T23:49:08;15.25;;;7.18;;
32946;SDS011;54465;51.230;22.504;2023-04-06T23:54:09;30.75;;;7.57;;
32946;SDS011;54465;51.230;22.504;2023-04-06T23:59:09;18.27;;;8.25;;
